sensor_id;sensor_type;location;lat;lon;timestamp;pressure;altitude;pressure_sealevel;temperature;humidity
13486;BME280;6815;59.336;17.998;2023-02-12T00:00:40;52206.94;;;-145.37;81.07
13486;BME280;6815;59.336;17.998;2023-02-12T00:03:06;52184.97;;;-145.37;81.13
13486;BME280;6815;59.336;17.998;2023-02-12T00:05:32;52173.00;;;-145.37;82.15
13486;BME280;6815;59.336;17.998;2023-02-12T00:07:58;52153.03;;;-145.37;82.30
13486;BME280;6815;59.336;17.998;2023-02-12T00:10:24;52143.06;;;-145.37;82.14
13486;BME280;6815;59.336;17.998;2023-02-12T00:12:49;52194.94;;;-145.37;82.00
13486;BME280;6815;59.336;17.998;2023-02-12T00:15:17;52129.06;;;-145.37;81.60
13486;BME280;6815;59.336;17.998;2023-02-12T00:17:42;52178.97;;;-145.37;81.32
13486;BME280;6815;59.336;17.998;2023-02-12T00:20:09;52192.97;;;-145.37;81.60
13486;BME280;6815;59.336;17.998;2023-02-12T00:22:35;52173.00;;;-145.37;81.68
13486;BME280;6815;59.336;17.998;2023-02-12T00:25:00;52169.00;;;-145.37;83.05
13486;BME280;6815;59.336;17.998;2023-02-12T00:27:26;52177.00;;;-145.37;82.94
13486;BME280;6815;59.336;17.998;2023-02-12T00:29:52;52222.91;;;-145.37;82.02
13486;BME280;6815;59.336;17.998;2023-02-12T00:32:18;52167.00;;;-145.37;81.59
13486;BME280;6815;59.336;17.998;2023-02-12T00:34:46;52188.97;;;-145.37;81.54
13486;BME280;6815;59.336;17.998;2023-02-12T00:37:12;52163.00;;;-145.37;82.53
13486;BME280;6815;59.336;17.998;2023-02-12T00:39:38;52171.00;;;-145.37;82.81
13486;BME280;6815;59.336;17.998;2023-02-12T00:42:04;52214.91;;;-145.37;81.96
13486;BME280;6815;59.336;17.998;2023-02-12T00:44:30;52137.06;;;-145.37;81.77
13486;BME280;6815;59.336;17.998;2023-02-12T00:46:56;52135.06;;;-145.37;80.65
13486;BME280;6815;59.336;17.998;2023-02-12T00:49:22;52145.03;;;-145.37;78.93
13486;BME280;6815;59.336;17.998;2023-02-12T00:51:48;52175.00;;;-145.37;78.48
13486;BME280;6815;59.336;17.998;2023-02-12T00:54:14;52129.06;;;-145.37;78.39
13486;BME280;6815;59.336;17.998;2023-02-12T00:56:41;52188.97;;;-145.37;78.09
13486;BME280;6815;59.336;17.998;2023-02-12T00:59:07;52177.00;;;-145.37;77.79
13486;BME280;6815;59.336;17.998;2023-02-12T01:01:32;52180.97;;;-145.37;77.59
13486;BME280;6815;59.336;17.998;2023-02-12T01:03:59;52149.03;;;-145.37;77.82
13486;BME280;6815;59.336;17.998;2023-02-12T01:06:26;52190.97;;;-145.37;78.26
13486;BME280;6815;59.336;17.998;2023-02-12T01:08:52;52175.00;;;-145.37;78.34
13486;BME280;6815;59.336;17.998;2023-02-12T01:11:18;52200.94;;;-145.37;78.41
13486;BME280;6815;59.336;17.998;2023-02-12T01:13:44;52194.94;;;-145.37;77.93
13486;BME280;6815;59.336;17.998;2023-02-12T01:18:39;52149.03;;;-145.37;77.08
13486;BME280;6815;59.336;17.998;2023-02-12T01:21:23;52184.97;;;-145.37;76.61
13486;BME280;6815;59.336;17.998;2023-02-12T01:23:49;52184.97;;;-145.37;76.15
13486;BME280;6815;59.336;17.998;2023-02-12T01:26:16;52206.94;;;-145.37;75.37
13486;BME280;6815;59.336;17.998;2023-02-12T01:28:47;52180.97;;;-145.37;74.50
13486;BME280;6815;59.336;17.998;2023-02-12T01:31:15;52188.97;;;-145.37;74.56
13486;BME280;6815;59.336;17.998;2023-02-12T01:33:41;52165.00;;;-145.37;75.19
13486;BME280;6815;59.336;17.998;2023-02-12T01:36:08;52216.91;;;-145.37;75.76
13486;BME280;6815;59.336;17.998;2023-02-12T01:38:35;52159.03;;;-145.37;76.48
13486;BME280;6815;59.336;17.998;2023-02-12T01:41:09;52157.03;;;-145.37;76.33
13486;BME280;6815;59.336;17.998;2023-02-12T01:43:35;52153.03;;;-145.37;76.14
13486;BME280;6815;59.336;17.998;2023-02-12T01:46:02;52143.06;;;-145.37;76.66
13486;BME280;6815;59.336;17.998;2023-02-12T01:48:35;52177.00;;;-145.37;76.39
13486;BME280;6815;59.336;17.998;2023-02-12T01:51:02;52178.97;;;-145.37;75.69
13486;BME280;6815;59.336;17.998;2023-02-12T01:53:46;52165.00;;;-145.37;75.65
13486;BME280;6815;59.336;17.998;2023-02-12T01:56:14;52186.97;;;-145.37;75.63
13486;BME280;6815;59.336;17.998;2023-02-12T01:58:41;52190.97;;;-145.37;75.87
13486;BME280;6815;59.336;17.998;2023-02-12T02:01:12;52123.09;;;-145.37;76.00
13486;BME280;6815;59.336;17.998;2023-02-12T02:03:42;52177.00;;;-145.37;76.17
13486;BME280;6815;59.336;17.998;2023-02-12T02:06:13;52145.03;;;-145.37;76.30
13486;BME280;6815;59.336;17.998;2023-02-12T02:08:41;52163.00;;;-145.37;76.25
13486;BME280;6815;59.336;17.998;2023-02-12T02:11:07;52161.03;;;-145.37;76.16
13486;BME280;6815;59.336;17.998;2023-02-12T02:13:51;52202.94;;;-145.37;75.99
13486;BME280;6815;59.336;17.998;2023-02-12T02:16:37;52173.00;;;-145.37;75.46
13486;BME280;6815;59.336;17.998;2023-02-12T02:19:37;52184.97;;;-145.37;74.66
13486;BME280;6815;59.336;17.998;2023-02-12T02:22:26;52171.00;;;-145.37;75.13
13486;BME280;6815;59.336;17.998;2023-02-12T02:30:44;52171.00;;;-145.37;75.45
13486;BME280;6815;59.336;17.998;2023-02-12T02:33:43;52163.00;;;-145.37;76.05
13486;BME280;6815;59.336;17.998;2023-02-12T02:36:26;52177.00;;;-145.37;76.21
13486;BME280;6815;59.336;17.998;2023-02-12T02:39:03;52165.00;;;-145.37;76.30
13486;BME280;6815;59.336;17.998;2023-02-12T02:41:47;52192.97;;;-145.37;75.62
13486;BME280;6815;59.336;17.998;2023-02-12T02:44:21;52173.00;;;-145.37;75.77
13486;BME280;6815;59.336;17.998;2023-02-12T02:46:50;52182.97;;;-145.37;75.08
13486;BME280;6815;59.336;17.998;2023-02-12T02:49:24;52186.97;;;-145.37;75.43
13486;BME280;6815;59.336;17.998;2023-02-12T02:52:00;52198.94;;;-145.37;76.00
13486;BME280;6815;59.336;17.998;2023-02-12T02:54:34;52167.00;;;-145.37;76.14
13486;BME280;6815;59.336;17.998;2023-02-12T02:57:16;52182.97;;;-145.37;75.79
13486;BME280;6815;59.336;17.998;2023-02-12T02:59:48;52171.00;;;-145.37;74.76
13486;BME280;6815;59.336;17.998;2023-02-12T03:02:35;52161.03;;;-145.37;74.80
13486;BME280;6815;59.336;17.998;2023-02-12T03:05:05;52173.00;;;-145.37;74.75
13486;BME280;6815;59.336;17.998;2023-02-12T03:07:36;52149.03;;;-145.37;74.90
13486;BME280;6815;59.336;17.998;2023-02-12T03:10:16;52169.00;;;-145.37;74.54
13486;BME280;6815;59.336;17.998;2023-02-12T03:12:51;52143.06;;;-145.37;74.75
13486;BME280;6815;59.336;17.998;2023-02-12T03:15:36;52200.94;;;-145.37;74.03
13486;BME280;6815;59.336;17.998;2023-02-12T03:18:07;52180.97;;;-145.37;74.12
13486;BME280;6815;59.336;17.998;2023-02-12T03:20:44;52184.97;;;-145.37;74.50
13486;BME280;6815;59.336;17.998;2023-02-12T03:23:39;52175.00;;;-145.37;75.43
13486;BME280;6815;59.336;17.998;2023-02-12T03:26:10;52190.97;;;-145.37;74.99
13486;BME280;6815;59.336;17.998;2023-02-12T03:28:38;52206.94;;;-145.37;75.37
13486;BME280;6815;59.336;17.998;2023-02-12T03:48:24;52157.03;;;-145.37;74.81
13486;BME280;6815;59.336;17.998;2023-02-12T03:50:52;52178.97;;;-145.37;74.79
13486;BME280;6815;59.336;17.998;2023-02-12T03:53:19;52190.97;;;-145.37;75.16
13486;BME280;6815;59.336;17.998;2023-02-12T03:55:48;52171.00;;;-145.37;75.21
13486;BME280;6815;59.336;17.998;2023-02-12T03:58:20;52167.00;;;-145.37;75.49
13486;BME280;6815;59.336;17.998;2023-02-12T04:00:49;52167.00;;;-145.37;75.02
13486;BME280;6815;59.336;17.998;2023-02-12T04:03:15;52147.03;;;-145.37;75.15
13486;BME280;6815;59.336;17.998;2023-02-12T04:05:40;52177.00;;;-145.37;74.32
13486;BME280;6815;59.336;17.998;2023-02-12T04:08:07;52184.97;;;-145.37;74.13
13486;BME280;6815;59.336;17.998;2023-02-12T04:11:06;52165.00;;;-145.37;73.87
13486;BME280;6815;59.336;17.998;2023-02-12T04:16:32;52228.88;;;-145.37;73.73
13486;BME280;6815;59.336;17.998;2023-02-12T04:18:59;52190.97;;;-145.37;73.91
13486;BME280;6815;59.336;17.998;2023-02-12T04:27:34;52169.00;;;-145.37;74.16
13486;BME280;6815;59.336;17.998;2023-02-12T04:30:31;52171.00;;;-145.37;74.17
13486;BME280;6815;59.336;17.998;2023-02-12T04:33:09;52220.91;;;-145.37;73.87
13486;BME280;6815;59.336;17.998;2023-02-12T04:35:58;52184.97;;;-145.37;74.08
13486;BME280;6815;59.336;17.998;2023-02-12T04:38:29;52190.97;;;-145.37;74.32
13486;BME280;6815;59.336;17.998;2023-02-12T04:40:57;52184.97;;;-145.37;73.73
13486;BME280;6815;59.336;17.998;2023-02-12T04:43:31;52186.97;;;-145.37;73.61
13486;BME280;6815;59.336;17.998;2023-02-12T04:46:01;52155.03;;;-145.37;73.55
13486;BME280;6815;59.336;17.998;2023-02-12T04:48:27;52175.00;;;-145.37;73.86
13486;BME280;6815;59.336;17.998;2023-02-12T04:50:54;52175.00;;;-145.37;74.02
13486;BME280;6815;59.336;17.998;2023-02-12T04:53:20;52177.00;;;-145.37;73.80
13486;BME280;6815;59.336;17.998;2023-02-12T04:55:46;52190.97;;;-145.37;73.75
13486;BME280;6815;59.336;17.998;2023-02-12T04:58:12;52202.94;;;-145.37;73.90
13486;BME280;6815;59.336;17.998;2023-02-12T05:00:38;52206.94;;;-145.37;74.23
13486;BME280;6815;59.336;17.998;2023-02-12T05:03:03;52175.00;;;-145.37;74.53
13486;BME280;6815;59.336;17.998;2023-02-12T05:05:29;52182.97;;;-145.37;74.24
13486;BME280;6815;59.336;17.998;2023-02-12T05:07:54;52196.94;;;-145.37;74.69
13486;BME280;6815;59.336;17.998;2023-02-12T05:10:20;52190.97;;;-145.37;74.73
13486;BME280;6815;59.336;17.998;2023-02-12T05:12:45;52210.91;;;-145.37;74.80
13486;BME280;6815;59.336;17.998;2023-02-12T05:15:11;52178.97;;;-145.37;74.96
13486;BME280;6815;59.336;17.998;2023-02-12T05:17:36;52169.00;;;-145.37;75.34
13486;BME280;6815;59.336;17.998;2023-02-12T05:20:03;52173.00;;;-145.37;75.63
13486;BME280;6815;59.336;17.998;2023-02-12T05:22:29;52178.97;;;-145.37;75.35
13486;BME280;6815;59.336;17.998;2023-02-12T05:24:54;52188.97;;;-145.37;75.66
13486;BME280;6815;59.336;17.998;2023-02-12T05:27:20;52224.91;;;-145.37;75.84
13486;BME280;6815;59.336;17.998;2023-02-12T05:29:46;52186.97;;;-145.37;75.83
13486;BME280;6815;59.336;17.998;2023-02-12T05:32:11;52188.97;;;-145.37;76.56
13486;BME280;6815;59.336;17.998;2023-02-12T05:34:37;52186.97;;;-145.37;76.20
13486;BME280;6815;59.336;17.998;2023-02-12T05:37:03;52204.94;;;-145.37;75.79
13486;BME280;6815;59.336;17.998;2023-02-12T05:39:28;52157.03;;;-145.37;76.82
13486;BME280;6815;59.336;17.998;2023-02-12T05:41:53;52180.97;;;-145.37;76.16
13486;BME280;6815;59.336;17.998;2023-02-12T05:44:19;52234.88;;;-145.37;76.34
13486;BME280;6815;59.336;17.998;2023-02-12T05:46:44;52194.94;;;-145.37;77.10
13486;BME280;6815;59.336;17.998;2023-02-12T05:49:10;52169.00;;;-145.37;76.59
13486;BME280;6815;59.336;17.998;2023-02-12T05:51:36;52192.97;;;-145.37;76.76
13486;BME280;6815;59.336;17.998;2023-02-12T05:54:03;52159.03;;;-145.37;76.58
13486;BME280;6815;59.336;17.998;2023-02-12T05:56:35;52167.00;;;-145.37;77.12
13486;BME280;6815;59.336;17.998;2023-02-12T05:59:06;52169.00;;;-145.37;76.65
13486;BME280;6815;59.336;17.998;2023-02-12T06:01:38;52192.97;;;-145.37;76.99
13486;BME280;6815;59.336;17.998;2023-02-12T06:04:05;52190.97;;;-145.37;77.38
13486;BME280;6815;59.336;17.998;2023-02-12T06:06:33;52182.97;;;-145.37;76.88
13486;BME280;6815;59.336;17.998;2023-02-12T06:09:00;52208.94;;;-145.37;77.57
13486;BME280;6815;59.336;17.998;2023-02-12T06:11:26;52180.97;;;-145.37;77.87
13486;BME280;6815;59.336;17.998;2023-02-12T06:13:53;52194.94;;;-145.37;77.95
13486;BME280;6815;59.336;17.998;2023-02-12T06:16:26;52204.94;;;-145.37;78.95
13486;BME280;6815;59.336;17.998;2023-02-12T06:18:53;52173.00;;;-145.37;79.79
13486;BME280;6815;59.336;17.998;2023-02-12T06:21:22;52180.97;;;-145.37;78.93
13486;BME280;6815;59.336;17.998;2023-02-12T06:23:49;52204.94;;;-145.37;79.59
13486;BME280;6815;59.336;17.998;2023-02-12T06:26:15;52161.03;;;-145.37;80.48
13486;BME280;6815;59.336;17.998;2023-02-12T06:28:41;52194.94;;;-145.37;80.52
13486;BME280;6815;59.336;17.998;2023-02-12T06:31:20;52192.97;;;-145.37;80.69
13486;BME280;6815;59.336;17.998;2023-02-12T06:33:46;52196.94;;;-145.37;80.23
13486;BME280;6815;59.336;17.998;2023-02-12T06:36:12;52165.00;;;-145.37;80.02
13486;BME280;6815;59.336;17.998;2023-02-12T06:38:37;52196.94;;;-145.37;80.61
13486;BME280;6815;59.336;17.998;2023-02-12T06:41:03;52184.97;;;-145.37;79.79
13486;BME280;6815;59.336;17.998;2023-02-12T06:43:29;52149.03;;;-145.37;80.82
13486;BME280;6815;59.336;17.998;2023-02-12T06:45:54;52177.00;;;-145.37;81.31
13486;BME280;6815;59.336;17.998;2023-02-12T06:48:20;52204.94;;;-145.37;81.16
13486;BME280;6815;59.336;17.998;2023-02-12T06:50:45;52202.94;;;-145.37;80.96
13486;BME280;6815;59.336;17.998;2023-02-12T06:53:11;52171.00;;;-145.37;81.35
13486;BME280;6815;59.336;17.998;2023-02-12T06:55:36;52177.00;;;-145.37;81.79
13486;BME280;6815;59.336;17.998;2023-02-12T06:58:02;52218.91;;;-145.37;81.36
13486;BME280;6815;59.336;17.998;2023-02-12T07:00:27;52194.94;;;-145.37;81.54
13486;BME280;6815;59.336;17.998;2023-02-12T07:02:54;52186.97;;;-145.37;81.66
13486;BME280;6815;59.336;17.998;2023-02-12T07:05:20;52192.97;;;-145.37;82.19
13486;BME280;6815;59.336;17.998;2023-02-12T07:07:45;52184.97;;;-145.37;81.99
13486;BME280;6815;59.336;17.998;2023-02-12T07:10:11;52182.97;;;-145.37;82.46
13486;BME280;6815;59.336;17.998;2023-02-12T07:12:36;52192.97;;;-145.37;81.72
13486;BME280;6815;59.336;17.998;2023-02-12T07:15:02;52175.00;;;-145.37;82.57
13486;BME280;6815;59.336;17.998;2023-02-12T07:17:29;52188.97;;;-145.37;82.05
13486;BME280;6815;59.336;17.998;2023-02-12T07:19:55;52184.97;;;-145.37;82.48
13486;BME280;6815;59.336;17.998;2023-02-12T07:22:21;52194.94;;;-145.37;82.83
13486;BME280;6815;59.336;17.998;2023-02-12T07:24:47;52210.91;;;-145.37;83.19
13486;BME280;6815;59.336;17.998;2023-02-12T07:27:13;52137.06;;;-145.37;82.92
13486;BME280;6815;59.336;17.998;2023-02-12T07:29:39;52139.06;;;-145.37;83.21
13486;BME280;6815;59.336;17.998;2023-02-12T07:32:04;52165.00;;;-145.37;83.07
13486;BME280;6815;59.336;17.998;2023-02-12T07:34:30;52157.03;;;-145.37;83.28
13486;BME280;6815;59.336;17.998;2023-02-12T07:36:55;52212.91;;;-145.37;83.11
13486;BME280;6815;59.336;17.998;2023-02-12T07:39:20;52157.03;;;-145.37;83.19
13486;BME280;6815;59.336;17.998;2023-02-12T07:41:46;52165.00;;;-145.37;84.13
13486;BME280;6815;59.336;17.998;2023-02-12T07:44:11;52173.00;;;-145.37;83.41
13486;BME280;6815;59.336;17.998;2023-02-12T07:46:43;52161.03;;;-145.37;83.28
13486;BME280;6815;59.336;17.998;2023-02-12T07:49:17;52218.91;;;-145.37;83.70
13486;BME280;6815;59.336;17.998;2023-02-12T07:51:43;52192.97;;;-145.37;83.73
13486;BME280;6815;59.336;17.998;2023-02-12T07:54:10;52143.06;;;-145.37;83.59
13486;BME280;6815;59.336;17.998;2023-02-12T07:56:36;52190.97;;;-145.37;83.13
13486;BME280;6815;59.336;17.998;2023-02-12T07:59:06;52192.97;;;-145.37;83.59
13486;BME280;6815;59.336;17.998;2023-02-12T08:01:34;52196.94;;;-145.37;83.79
13486;BME280;6815;59.336;17.998;2023-02-12T08:04:08;52169.00;;;-145.37;84.17
13486;BME280;6815;59.336;17.998;2023-02-12T08:06:36;52178.97;;;-145.37;85.15
13486;BME280;6815;59.336;17.998;2023-02-12T08:09:06;52165.00;;;-145.37;85.23
13486;BME280;6815;59.336;17.998;2023-02-12T08:11:32;52184.97;;;-145.37;85.33
13486;BME280;6815;59.336;17.998;2023-02-12T08:13:58;52180.97;;;-145.37;84.89
13486;BME280;6815;59.336;17.998;2023-02-12T08:16:26;52220.91;;;-145.37;85.30
13486;BME280;6815;59.336;17.998;2023-02-12T08:18:52;52177.00;;;-145.37;84.80
13486;BME280;6815;59.336;17.998;2023-02-12T08:21:23;52226.91;;;-145.37;84.22
13486;BME280;6815;59.336;17.998;2023-02-12T08:23:50;52190.97;;;-145.37;84.31
13486;BME280;6815;59.336;17.998;2023-02-12T08:26:18;52188.97;;;-145.37;85.12
13486;BME280;6815;59.336;17.998;2023-02-12T08:28:47;52171.00;;;-145.37;85.06
13486;BME280;6815;59.336;17.998;2023-02-12T08:31:18;52171.00;;;-145.37;85.88
13486;BME280;6815;59.336;17.998;2023-02-12T08:33:45;52178.97;;;-145.37;86.19
13486;BME280;6815;59.336;17.998;2023-02-12T08:36:13;52192.97;;;-145.37;85.93
13486;BME280;6815;59.336;17.998;2023-02-12T08:38:41;52212.91;;;-145.37;86.43
13486;BME280;6815;59.336;17.998;2023-02-12T08:41:09;52196.94;;;-145.37;86.32
13486;BME280;6815;59.336;17.998;2023-02-12T08:43:36;52186.97;;;-145.37;86.31
13486;BME280;6815;59.336;17.998;2023-02-12T08:46:07;52184.97;;;-145.37;86.67
13486;BME280;6815;59.336;17.998;2023-02-12T08:48:33;52161.03;;;-145.37;86.65
13486;BME280;6815;59.336;17.998;2023-02-12T08:51:09;52206.94;;;-145.37;86.88
13486;BME280;6815;59.336;17.998;2023-02-12T08:53:36;52180.97;;;-145.37;86.79
13486;BME280;6815;59.336;17.998;2023-02-12T08:56:02;52212.91;;;-145.37;87.21
13486;BME280;6815;59.336;17.998;2023-02-12T08:58:27;52210.91;;;-145.37;87.37
13486;BME280;6815;59.336;17.998;2023-02-12T09:00:53;52198.94;;;-145.37;86.92
13486;BME280;6815;59.336;17.998;2023-02-12T09:03:18;52228.88;;;-145.37;87.41
13486;BME280;6815;59.336;17.998;2023-02-12T09:05:44;52248.84;;;-145.37;87.41
13486;BME280;6815;59.336;17.998;2023-02-12T09:08:09;52184.97;;;-145.37;86.89
13486;BME280;6815;59.336;17.998;2023-02-12T09:10:39;52153.03;;;-145.37;86.93
13486;BME280;6815;59.336;17.998;2023-02-12T09:13:06;52180.97;;;-145.37;86.58
13486;BME280;6815;59.336;17.998;2023-02-12T09:15:37;52171.00;;;-145.37;86.64
13486;BME280;6815;59.336;17.998;2023-02-12T09:18:03;52186.97;;;-145.37;87.45
13486;BME280;6815;59.336;17.998;2023-02-12T09:20:29;52163.00;;;-145.37;87.27
13486;BME280;6815;59.336;17.998;2023-02-12T09:22:56;52198.94;;;-145.37;86.95
13486;BME280;6815;59.336;17.998;2023-02-12T09:25:22;52206.94;;;-145.37;86.50
13486;BME280;6815;59.336;17.998;2023-02-12T09:27:47;52180.97;;;-145.37;87.23
13486;BME280;6815;59.336;17.998;2023-02-12T09:30:14;52169.00;;;-145.37;87.01
13486;BME280;6815;59.336;17.998;2023-02-12T09:32:40;52218.91;;;-145.37;86.79
13486;BME280;6815;59.336;17.998;2023-02-12T09:35:05;52180.97;;;-145.37;87.77
13486;BME280;6815;59.336;17.998;2023-02-12T09:37:31;52198.94;;;-145.37;87.39
13486;BME280;6815;59.336;17.998;2023-02-12T09:39:57;52182.97;;;-145.37;87.75
13486;BME280;6815;59.336;17.998;2023-02-12T09:45:12;52196.94;;;-145.37;87.85
13486;BME280;6815;59.336;17.998;2023-02-12T09:47:57;52204.94;;;-145.37;87.92
13486;BME280;6815;59.336;17.998;2023-02-12T09:50:42;52200.94;;;-145.37;88.09
13486;BME280;6815;59.336;17.998;2023-02-12T09:53:13;52200.94;;;-145.37;87.73
13486;BME280;6815;59.336;17.998;2023-02-12T09:55:41;52230.88;;;-145.37;88.21
13486;BME280;6815;59.336;17.998;2023-02-12T09:58:34;52182.97;;;-145.37;88.84
13486;BME280;6815;59.336;17.998;2023-02-12T10:00:59;52230.88;;;-145.37;88.44
13486;BME280;6815;59.336;17.998;2023-02-12T10:03:27;52177.00;;;-145.37;88.62
13486;BME280;6815;59.336;17.998;2023-02-12T10:06:02;52206.94;;;-145.37;88.66
13486;BME280;6815;59.336;17.998;2023-02-12T10:11:38;52228.88;;;-145.37;89.17
13486;BME280;6815;59.336;17.998;2023-02-12T10:17:41;52177.00;;;-145.37;89.33
13486;BME280;6815;59.336;17.998;2023-02-12T10:25:44;52163.00;;;-145.37;89.73
13486;BME280;6815;59.336;17.998;2023-02-12T10:28:16;52192.97;;;-145.37;89.77
13486;BME280;6815;59.336;17.998;2023-02-12T10:30:58;52260.84;;;-145.37;89.13
13486;BME280;6815;59.336;17.998;2023-02-12T10:33:35;52177.00;;;-145.37;89.08
13486;BME280;6815;59.336;17.998;2023-02-12T10:36:17;52226.91;;;-145.37;88.92
13486;BME280;6815;59.336;17.998;2023-02-12T10:38:50;52206.94;;;-145.37;88.22
13486;BME280;6815;59.336;17.998;2023-02-12T10:41:16;52186.97;;;-145.37;88.16
13486;BME280;6815;59.336;17.998;2023-02-12T10:43:42;52196.94;;;-145.37;89.01
13486;BME280;6815;59.336;17.998;2023-02-12T10:46:14;52276.81;;;-145.37;88.95
13486;BME280;6815;59.336;17.998;2023-02-12T10:48:42;52180.97;;;-145.37;89.03
13486;BME280;6815;59.336;17.998;2023-02-12T10:53:44;52190.97;;;-145.37;89.09
13486;BME280;6815;59.336;17.998;2023-02-12T10:58:38;52216.91;;;-145.37;89.22
13486;BME280;6815;59.336;17.998;2023-02-12T11:01:04;52240.88;;;-145.37;89.21
13486;BME280;6815;59.336;17.998;2023-02-12T11:03:31;52208.94;;;-145.37;89.31
13486;BME280;6815;59.336;17.998;2023-02-12T11:06:15;52220.91;;;-145.37;88.76
13486;BME280;6815;59.336;17.998;2023-02-12T11:08:41;52182.97;;;-145.37;89.62
13486;BME280;6815;59.336;17.998;2023-02-12T11:11:30;52165.00;;;-145.37;89.94
13486;BME280;6815;59.336;17.998;2023-02-12T11:14:18;52208.94;;;-145.37;90.12
13486;BME280;6815;59.336;17.998;2023-02-12T11:16:53;52163.00;;;-145.37;90.07
13486;BME280;6815;59.336;17.998;2023-02-12T11:19:22;52244.84;;;-145.37;90.07
13486;BME280;6815;59.336;17.998;2023-02-12T11:21:49;52171.00;;;-145.37;90.03
13486;BME280;6815;59.336;17.998;2023-02-12T11:26:49;52250.84;;;-145.37;90.61
13486;BME280;6815;59.336;17.998;2023-02-12T11:29:21;52220.91;;;-145.37;90.32
13486;BME280;6815;59.336;17.998;2023-02-12T11:32:01;52177.00;;;-145.37;90.51
13486;BME280;6815;59.336;17.998;2023-02-12T11:34:28;52184.97;;;-145.37;90.63
13486;BME280;6815;59.336;17.998;2023-02-12T11:36:54;52196.94;;;-145.37;90.44
13486;BME280;6815;59.336;17.998;2023-02-12T11:39:23;52198.94;;;-145.37;90.54
13486;BME280;6815;59.336;17.998;2023-02-12T11:41:52;52292.78;;;-145.37;90.78
13486;BME280;6815;59.336;17.998;2023-02-12T11:47:07;52184.97;;;-145.37;90.46
13486;BME280;6815;59.336;17.998;2023-02-12T11:49:43;52178.97;;;-145.37;90.35
13486;BME280;6815;59.336;17.998;2023-02-12T11:52:26;52208.94;;;-145.37;90.41
13486;BME280;6815;59.336;17.998;2023-02-12T11:54:55;52206.94;;;-145.37;90.68
13486;BME280;6815;59.336;17.998;2023-02-12T12:00:00;52220.91;;;-145.37;90.53
13486;BME280;6815;59.336;17.998;2023-02-12T12:02:32;52226.91;;;-145.37;90.57
13486;BME280;6815;59.336;17.998;2023-02-12T12:05:14;52208.94;;;-145.37;90.49
13486;BME280;6815;59.336;17.998;2023-02-12T12:07:45;52260.84;;;-145.37;90.47
13486;BME280;6815;59.336;17.998;2023-02-12T12:10:33;52177.00;;;-145.37;90.58
13486;BME280;6815;59.336;17.998;2023-02-12T12:13:03;52161.03;;;-145.37;90.65
13486;BME280;6815;59.336;17.998;2023-02-12T12:15:42;52248.84;;;-145.37;90.33
13486;BME280;6815;59.336;17.998;2023-02-12T12:18:51;52206.94;;;-145.37;90.46
13486;BME280;6815;59.336;17.998;2023-02-12T12:21:47;52194.94;;;-145.37;90.24
13486;BME280;6815;59.336;17.998;2023-02-12T12:24:38;52230.88;;;-145.37;90.31
13486;BME280;6815;59.336;17.998;2023-02-12T12:27:53;52214.91;;;-145.37;90.37
13486;BME280;6815;59.336;17.998;2023-02-12T12:33:04;52220.91;;;-145.37;90.56
13486;BME280;6815;59.336;17.998;2023-02-12T12:35:59;52212.91;;;-145.37;90.66
13486;BME280;6815;59.336;17.998;2023-02-12T12:41:40;52188.97;;;-145.37;90.87
13486;BME280;6815;59.336;17.998;2023-02-12T12:55:20;52234.88;;;-145.37;91.19
13486;BME280;6815;59.336;17.998;2023-02-12T13:09:05;52230.88;;;-145.37;91.40
13486;BME280;6815;59.336;17.998;2023-02-12T13:14:22;52214.91;;;-145.37;91.36
13486;BME280;6815;59.336;17.998;2023-02-12T13:19:58;52226.91;;;-145.37;91.67
13486;BME280;6815;59.336;17.998;2023-02-12T13:22:31;52184.97;;;-145.37;91.75
13486;BME280;6815;59.336;17.998;2023-02-12T13:27:45;52210.91;;;-145.37;91.86
13486;BME280;6815;59.336;17.998;2023-02-12T13:30:20;52240.88;;;-145.37;91.70
13486;BME280;6815;59.336;17.998;2023-02-12T13:33:04;52192.97;;;-145.37;91.82
13486;BME280;6815;59.336;17.998;2023-02-12T13:35:32;52228.88;;;-145.37;92.06
13486;BME280;6815;59.336;17.998;2023-02-12T13:37:59;52192.97;;;-145.37;92.26
13486;BME280;6815;59.336;17.998;2023-02-12T13:40:28;52208.94;;;-145.37;92.01
13486;BME280;6815;59.336;17.998;2023-02-12T13:57:00;52228.88;;;-145.37;92.40
13486;BME280;6815;59.336;17.998;2023-02-12T14:02:01;52180.97;;;-145.37;92.51
13486;BME280;6815;59.336;17.998;2023-02-12T14:07:10;52230.88;;;-145.37;92.71
13486;BME280;6815;59.336;17.998;2023-02-12T14:12:26;52200.94;;;-145.37;92.92
13486;BME280;6815;59.336;17.998;2023-02-12T14:20:19;52226.91;;;-145.37;93.61
13486;BME280;6815;59.336;17.998;2023-02-12T14:30:35;52178.97;;;-145.37;94.52
13486;BME280;6815;59.336;17.998;2023-02-12T14:35:39;52208.94;;;-145.37;94.66
13486;BME280;6815;59.336;17.998;2023-02-12T14:43:23;52216.91;;;-145.37;95.11
13486;BME280;6815;59.336;17.998;2023-02-12T14:45:49;52218.91;;;-145.37;95.23
13486;BME280;6815;59.336;17.998;2023-02-12T14:48:38;52198.94;;;-145.37;95.52
13486;BME280;6815;59.336;17.998;2023-02-12T14:51:04;52212.91;;;-145.37;95.54
13486;BME280;6815;59.336;17.998;2023-02-12T14:53:38;52198.94;;;-145.37;95.59
13486;BME280;6815;59.336;17.998;2023-02-12T14:56:04;52242.88;;;-145.37;95.93
13486;BME280;6815;59.336;17.998;2023-02-12T14:58:34;52310.75;;;-145.37;96.06
13486;BME280;6815;59.336;17.998;2023-02-12T15:01:01;52204.94;;;-145.37;96.06
13486;BME280;6815;59.336;17.998;2023-02-12T15:06:11;52238.88;;;-145.37;96.67
13486;BME280;6815;59.336;17.998;2023-02-12T15:11:32;52220.91;;;-145.37;96.58
13486;BME280;6815;59.336;17.998;2023-02-12T15:14:21;52224.91;;;-145.37;96.84
13486;BME280;6815;59.336;17.998;2023-02-12T15:16:55;52220.91;;;-145.37;97.01
13486;BME280;6815;59.336;17.998;2023-02-12T15:21:55;52226.91;;;-145.37;97.29
13486;BME280;6815;59.336;17.998;2023-02-12T15:24:23;52165.00;;;-145.37;97.14
13486;BME280;6815;59.336;17.998;2023-02-12T15:26:52;52224.91;;;-145.37;97.23